createdAt,value
2023-01-08T00:01:54.701Z,68.70
2023-01-08T00:06:56.489Z,68.60
2023-01-08T00:11:58.174Z,68.70
2023-01-08T00:17:00.060Z,68.70
2023-01-08T00:22:01.805Z,68.60
2023-01-08T00:27:03.520Z,68.60
2023-01-08T00:32:05.145Z,68.60
2023-01-08T00:37:06.877Z,68.50
2023-01-08T00:42:08.550Z,68.40
2023-01-08T00:47:10.316Z,68.30
2023-01-08T00:52:12.716Z,68.20
2023-01-08T00:57:14.428Z,68.20
2023-01-08T01:02:16.337Z,68.20
2023-01-08T01:07:18.825Z,68.10
2023-01-08T01:12:20.459Z,68.10
2023-01-08T01:17:22.096Z,68.10
2023-01-08T01:22:23.840Z,68.00
2023-01-08T01:27:26.157Z,68.00
2023-01-08T01:32:27.901Z,67.80
2023-01-08T01:37:29.595Z,67.80
2023-01-08T01:42:40.226Z,67.80
2023-01-08T01:47:42.016Z,67.70
2023-01-08T01:52:47.561Z,67.60
2023-01-08T01:57:52.902Z,67.70
2023-01-08T02:02:55.179Z,67.60
2023-01-08T02:08:02.258Z,67.60
2023-01-08T02:13:20.541Z,68.60
2023-01-08T02:18:29.278Z,67.60
2023-01-08T02:23:53.159Z,67.60
2023-01-08T02:28:57.485Z,67.60
2023-01-08T02:33:59.292Z,67.60
2023-01-08T02:39:04.596Z,67.60
2023-01-08T02:44:09.400Z,67.60
2023-01-08T02:49:12.217Z,67.50
2023-01-08T02:54:16.473Z,67.50
2023-01-08T02:59:19.015Z,67.50
2023-01-08T03:04:21.996Z,67.40
2023-01-08T03:09:23.769Z,67.50
2023-01-08T03:14:28.218Z,67.50
2023-01-08T03:19:31.930Z,67.50
2023-01-08T03:24:34.166Z,67.50
2023-01-08T03:29:36.670Z,67.40
2023-01-08T03:34:40.170Z,67.40
2023-01-08T03:39:44.085Z,67.50
2023-01-08T03:44:46.037Z,67.40
2023-01-08T03:49:48.967Z,67.40
2023-01-08T03:54:50.790Z,67.50
2023-01-08T03:59:52.480Z,67.40
2023-01-08T04:04:54.307Z,67.40
2023-01-08T04:09:56.014Z,67.40
2023-01-08T04:14:57.601Z,67.40
2023-01-08T04:19:59.333Z,67.40
2023-01-08T04:25:01.067Z,67.40
2023-01-08T04:30:03.106Z,67.30
2023-01-08T04:35:05.254Z,67.30
2023-01-08T04:40:07.106Z,67.30
2023-01-08T04:45:08.891Z,67.30
2023-01-08T06:02:15.379Z,66.60
2023-01-08T06:07:17.117Z,66.10
2023-01-08T06:12:19.022Z,65.50
2023-01-08T06:17:20.769Z,65.10
2023-01-08T06:22:22.505Z,65.00
2023-01-08T06:27:24.346Z,64.80
2023-01-08T06:32:26.061Z,64.70
2023-01-08T06:37:27.848Z,64.70
2023-01-08T06:42:29.543Z,64.70
2023-01-08T06:47:32.282Z,64.60
2023-01-08T06:52:33.952Z,64.70
2023-01-08T06:57:35.627Z,64.70
2023-01-08T07:02:37.949Z,64.50
2023-01-08T07:07:39.882Z,64.20
2023-01-08T07:12:41.719Z,63.90
2023-01-08T07:17:43.652Z,63.80
2023-01-08T07:22:45.435Z,63.90
2023-01-08T07:27:48.977Z,63.80
2023-01-08T07:32:50.746Z,63.90
2023-01-08T07:37:52.307Z,63.90
2023-01-08T07:42:57.571Z,64.80
2023-01-08T07:47:59.810Z,63.60
2023-01-08T07:53:01.432Z,63.40
2023-01-08T07:58:07.707Z,63.30
2023-01-08T08:03:11.813Z,63.40
2023-01-08T08:08:13.902Z,63.40
2023-01-08T08:13:15.550Z,63.40
2023-01-08T08:18:17.597Z,63.50
2023-01-08T08:23:19.330Z,63.60
2023-01-08T08:28:21.069Z,63.50
2023-01-08T08:33:22.741Z,63.70
2023-01-08T08:38:26.239Z,63.70
2023-01-08T08:43:28.332Z,63.70
2023-01-08T08:48:30.035Z,64.90
2023-01-08T08:53:31.644Z,65.30
2023-01-08T08:58:33.460Z,64.80
2023-01-08T09:03:35.365Z,64.60
2023-01-08T09:08:40.499Z,64.50
2023-01-08T09:13:42.184Z,64.50
2023-01-08T09:18:44.820Z,64.40
2023-01-08T09:23:48.646Z,64.60
2023-01-08T09:28:50.481Z,64.60
2023-01-08T09:33:52.233Z,64.70
2023-01-08T09:38:53.938Z,64.70
2023-01-08T09:43:57.133Z,64.60
2023-01-08T09:49:04.412Z,64.60
2023-01-08T09:54:07.607Z,64.60
2023-01-08T09:59:11.793Z,64.60
2023-01-08T10:04:17.965Z,64.60
2023-01-08T10:09:24.011Z,64.80
2023-01-08T10:14:28.002Z,64.70
2023-01-08T10:19:29.705Z,64.70
2023-01-08T10:24:32.655Z,64.80
2023-01-08T10:29:34.341Z,65.00
2023-01-08T10:34:45.047Z,64.80
2023-01-08T10:39:48.050Z,64.90
2023-01-08T10:44:55.211Z,64.80
2023-01-08T10:49:57.616Z,64.80
2023-01-08T10:55:22.065Z,64.70
2023-01-08T11:00:24.914Z,64.50
2023-01-08T11:05:33.531Z,64.10
2023-01-08T11:10:36.551Z,63.70
2023-01-08T11:15:39.026Z,64.20
2023-01-08T11:20:42.119Z,67.50
2023-01-08T11:25:45.519Z,65.30
2023-01-08T11:30:53.166Z,64.70
2023-01-08T11:35:58.993Z,64.60
2023-01-08T11:41:03.503Z,64.80
2023-01-08T11:46:24.097Z,64.60
2023-01-08T11:51:28.598Z,64.50
2023-01-08T11:56:49.335Z,64.40
2023-01-08T12:02:09.416Z,64.40
2023-01-08T12:07:29.853Z,64.30
2023-01-08T12:12:43.281Z,64.40
2023-01-08T12:17:47.961Z,64.60
2023-01-08T12:23:06.379Z,64.80
2023-01-08T12:28:28.362Z,64.80
2023-01-08T12:33:47.756Z,64.90
2023-01-08T12:38:53.913Z,65.10
2023-01-08T12:44:06.247Z,65.30
2023-01-08T12:49:09.829Z,65.40
2023-01-08T12:54:19.124Z,65.40
2023-01-08T12:59:20.811Z,65.50
2023-01-08T13:04:22.595Z,65.60
2023-01-08T13:09:25.535Z,65.50
2023-01-08T13:14:27.631Z,65.70
2023-01-08T13:19:31.221Z,65.60
2023-01-08T13:24:33.055Z,65.60
2023-01-08T13:29:39.319Z,65.70
2023-01-08T13:34:42.389Z,65.60
2023-01-08T13:39:44.126Z,65.70
2023-01-08T13:44:52.815Z,65.50
2023-01-08T13:49:55.316Z,65.50
2023-01-08T13:54:57.268Z,65.50
2023-01-08T13:59:59.254Z,65.50
2023-01-08T14:05:01.804Z,65.60
2023-01-08T14:10:07.781Z,65.50
2023-01-08T14:15:11.424Z,65.50
2023-01-08T14:20:13.335Z,65.40
2023-01-08T14:25:16.915Z,65.40
2023-01-08T14:30:18.811Z,65.70
2023-01-08T14:35:23.203Z,65.50
2023-01-08T14:40:32.256Z,65.20
2023-01-08T14:45:34.735Z,65.00
2023-01-08T14:50:38.017Z,64.80
2023-01-08T14:55:42.427Z,64.80
2023-01-08T15:00:48.793Z,64.80
2023-01-08T15:05:54.338Z,64.60
2023-01-08T15:11:00.410Z,64.40
2023-01-08T15:16:06.940Z,64.40
2023-01-08T15:21:09.202Z,64.30
2023-01-08T15:26:13.093Z,64.40
2023-01-08T15:31:23.147Z,64.20
2023-01-08T15:36:25.401Z,64.10
2023-01-08T15:41:52.849Z,64.00
2023-01-08T15:46:54.674Z,64.00
2023-01-08T15:51:56.339Z,63.80
2023-01-08T15:56:58.165Z,63.50
2023-01-08T16:01:59.968Z,63.00
2023-01-08T16:07:01.812Z,62.50
2023-01-08T16:12:03.732Z,62.10
2023-01-08T16:17:05.885Z,61.90
2023-01-08T16:22:07.931Z,61.80
2023-01-08T16:27:09.897Z,61.80
2023-01-08T16:32:11.780Z,61.80
2023-01-08T16:37:14.397Z,61.90
2023-01-08T16:42:16.094Z,61.80
2023-01-08T16:47:17.822Z,61.60
2023-01-08T16:52:19.676Z,61.20
2023-01-08T16:57:21.468Z,61.10
2023-01-08T17:02:23.484Z,61.10
2023-01-08T17:07:25.304Z,61.10
2023-01-08T17:12:27.022Z,62.30
2023-01-08T17:17:28.787Z,61.30
2023-01-08T17:22:30.576Z,61.10
2023-01-08T17:27:34.486Z,60.50
2023-01-08T17:32:36.238Z,60.20
2023-01-08T17:37:38.015Z,60.70
2023-01-08T17:42:39.623Z,60.80
2023-01-08T17:47:41.589Z,61.10
2023-01-08T17:52:43.352Z,61.30
2023-01-08T17:57:45.148Z,61.50
2023-01-08T18:02:47.000Z,61.50
2023-01-08T18:07:48.849Z,61.20
2023-01-08T18:12:50.598Z,61.20
2023-01-08T18:17:52.933Z,61.20
2023-01-08T18:22:55.173Z,61.40
2023-01-08T18:27:56.922Z,61.40
2023-01-08T18:32:58.686Z,61.50
2023-01-08T18:38:00.504Z,61.70
2023-01-08T18:43:02.197Z,61.90
2023-01-08T18:48:04.388Z,62.00
2023-01-08T18:53:06.708Z,61.90
2023-01-08T18:58:08.343Z,61.90
2023-01-08T19:03:10.486Z,62.00
2023-01-08T19:08:12.177Z,62.20
2023-01-08T19:13:13.906Z,62.20
2023-01-08T19:18:15.458Z,62.20
2023-01-08T19:23:17.506Z,62.20
2023-01-08T19:28:19.277Z,62.10
2023-01-08T19:33:21.712Z,62.20
2023-01-08T19:38:23.477Z,62.20
2023-01-08T19:43:43.280Z,62.30
2023-01-08T19:48:45.659Z,62.40
2023-01-08T19:53:47.539Z,62.70
2023-01-08T19:58:49.296Z,62.80
2023-01-08T20:03:51.225Z,62.80
2023-01-08T20:08:54.337Z,62.90
2023-01-08T20:14:00.377Z,62.80
2023-01-08T20:19:04.292Z,62.90
2023-01-08T20:24:10.602Z,62.90
2023-01-08T20:29:13.396Z,63.00
2023-01-08T20:34:15.785Z,63.10
2023-01-08T20:39:17.911Z,63.20
2023-01-08T20:44:19.628Z,63.10
2023-01-08T20:49:21.527Z,63.20
2023-01-08T20:54:23.205Z,63.30
2023-01-08T20:59:25.341Z,63.20
2023-01-08T21:04:27.094Z,64.30
2023-01-08T21:09:28.810Z,63.50
2023-01-08T21:14:30.490Z,63.30
2023-01-08T21:19:32.206Z,63.50
2023-01-08T21:24:33.927Z,63.50
2023-01-08T21:29:35.652Z,63.40
2023-01-08T21:34:37.566Z,63.40
2023-01-08T21:39:39.189Z,63.40
2023-01-08T21:44:59.211Z,63.40
2023-01-08T21:50:02.848Z,63.40
2023-01-08T21:55:04.651Z,63.60
2023-01-08T22:00:06.795Z,63.40
2023-01-08T22:05:08.605Z,63.40
2023-01-08T22:10:10.615Z,63.40
2023-01-08T22:15:12.546Z,63.40
2023-01-08T22:20:14.192Z,63.50
2023-01-08T22:25:15.922Z,63.60
2023-01-08T22:30:17.658Z,63.50
2023-01-08T22:35:19.371Z,63.70
2023-01-08T22:40:21.057Z,63.70
2023-01-08T22:45:22.848Z,63.80
2023-01-08T22:50:24.642Z,63.70
2023-01-08T22:55:26.421Z,63.70
2023-01-08T23:00:28.136Z,63.70
2023-01-08T23:05:29.888Z,63.70
2023-01-08T23:10:31.712Z,63.80
2023-01-08T23:15:33.475Z,63.80
2023-01-08T23:20:35.188Z,63.70
2023-01-08T23:25:37.044Z,63.70
2023-01-08T23:30:40.223Z,63.80
2023-01-08T23:35:42.711Z,63.80
2023-01-08T23:40:45.220Z,63.80
2023-01-08T23:45:46.986Z,63.90
2023-01-08T23:50:48.894Z,63.90
2023-01-08T23:55:50.634Z,64.00
